createdAt,value
2023-05-09T00:00:20.350Z,0.68
2023-05-09T00:02:47.924Z,0.70
2023-05-09T00:05:15.460Z,0.60
2023-05-09T00:07:42.364Z,0.57
2023-05-09T00:10:09.039Z,0.50
2023-05-09T00:12:36.055Z,0.63
2023-05-09T00:15:03.645Z,0.60
2023-05-09T00:17:30.827Z,0.57
2023-05-09T00:19:57.572Z,0.57
2023-05-09T00:22:24.316Z,0.50
2023-05-09T00:24:51.100Z,0.68
2023-05-09T00:27:17.811Z,0.52
2023-05-09T00:29:44.528Z,0.50
2023-05-09T00:32:11.636Z,0.60
2023-05-09T00:34:38.649Z,0.43
2023-05-09T00:37:06.404Z,0.40
2023-05-09T00:39:33.128Z,0.40
2023-05-09T00:41:59.855Z,0.40
2023-05-09T00:44:26.593Z,0.43
2023-05-09T00:46:53.290Z,0.50
2023-05-09T00:49:19.966Z,0.50
2023-05-09T00:51:46.698Z,0.60
2023-05-09T00:54:13.498Z,0.50
2023-05-09T00:56:40.595Z,0.50
2023-05-09T00:59:07.488Z,0.45
2023-05-09T01:01:34.243Z,0.40
2023-05-09T01:04:01.069Z,0.40
2023-05-09T01:06:27.770Z,0.30
2023-05-09T01:08:55.041Z,0.47
2023-05-09T01:11:21.868Z,0.25
2023-05-09T01:13:48.525Z,0.40
2023-05-09T01:16:15.594Z,0.40
2023-05-09T01:18:42.337Z,0.30
2023-05-09T01:21:10.261Z,0.40
2023-05-09T01:23:37.017Z,0.30
2023-05-09T01:26:03.781Z,0.30
2023-05-09T01:28:30.498Z,0.40
2023-05-09T01:30:57.206Z,0.30
2023-05-09T01:33:23.923Z,0.22
2023-05-09T01:35:50.924Z,0.30
2023-05-09T01:38:17.590Z,0.30
2023-05-09T01:40:44.359Z,0.40
2023-05-09T01:43:11.236Z,0.40
2023-05-09T01:45:41.453Z,0.40
2023-05-09T01:48:08.595Z,0.30
2023-05-09T01:50:35.582Z,0.40
2023-05-09T01:53:02.306Z,0.30
2023-05-09T01:55:28.976Z,0.40
2023-05-09T01:57:56.012Z,0.28
2023-05-09T02:00:22.754Z,0.40
2023-05-09T02:02:49.625Z,0.52
2023-05-09T02:05:16.704Z,0.40
2023-05-09T02:07:43.560Z,0.40
2023-05-09T02:10:10.366Z,0.40
2023-05-09T02:12:37.502Z,0.35
2023-05-09T02:15:04.184Z,0.50
2023-05-09T02:17:31.377Z,0.30
2023-05-09T02:19:58.057Z,0.40
2023-05-09T02:22:24.770Z,0.50
2023-05-09T02:24:51.488Z,0.50
2023-05-09T02:27:18.160Z,0.40
2023-05-09T02:29:44.843Z,0.50
2023-05-09T02:32:11.633Z,0.65
2023-05-09T02:34:38.336Z,0.40
2023-05-09T02:37:05.085Z,0.32
2023-05-09T02:39:31.818Z,0.30
2023-05-09T02:42:00.125Z,0.20
2023-05-09T02:44:26.808Z,0.35
2023-05-09T02:46:53.534Z,0.38
2023-05-09T02:49:31.447Z,0.35
2023-05-09T02:51:59.985Z,0.45
2023-05-09T02:54:26.997Z,0.40
2023-05-09T02:56:53.856Z,0.40
2023-05-09T02:59:20.579Z,0.50
2023-05-09T03:01:47.394Z,0.50
2023-05-09T03:04:16.571Z,0.32
2023-05-09T03:06:43.363Z,0.38
2023-05-09T03:09:10.161Z,0.50
2023-05-09T03:11:37.123Z,0.55
2023-05-09T03:14:03.937Z,0.50
2023-05-09T03:16:31.096Z,0.50
2023-05-09T03:18:58.559Z,0.50
2023-05-09T03:21:25.372Z,0.60
2023-05-09T03:23:52.087Z,0.50
2023-05-09T03:26:18.854Z,0.60
2023-05-09T03:28:45.666Z,0.45
2023-05-09T03:31:12.446Z,0.50
2023-05-09T03:33:39.451Z,0.50
2023-05-09T03:36:07.192Z,0.50
2023-05-09T03:38:34.132Z,0.90
2023-05-09T03:41:01.125Z,0.90
2023-05-09T03:43:28.382Z,0.70
2023-05-09T03:45:55.126Z,0.70
2023-05-09T03:48:22.153Z,1.15
2023-05-09T03:50:51.440Z,0.60
2023-05-09T03:53:18.848Z,0.65
2023-05-09T03:55:47.652Z,0.47
2023-05-09T03:58:15.916Z,0.40
2023-05-09T04:00:43.721Z,0.57
2023-05-09T04:03:16.556Z,0.77
2023-05-09T04:05:46.589Z,0.85
2023-05-09T04:08:23.291Z,0.95
2023-05-09T04:10:50.315Z,0.80
2023-05-09T04:13:17.094Z,0.75
2023-05-09T04:15:44.441Z,0.73
2023-05-09T04:18:11.612Z,0.80
2023-05-09T04:20:38.286Z,1.10
2023-05-09T04:23:05.018Z,1.25
2023-05-09T04:25:32.345Z,1.55
2023-05-09T04:27:59.445Z,1.70
2023-05-09T04:30:29.766Z,1.70
2023-05-09T04:32:57.826Z,1.30
2023-05-09T04:35:27.188Z,1.30
2023-05-09T04:37:54.454Z,1.30
2023-05-09T04:40:21.739Z,1.38
2023-05-09T04:42:54.977Z,1.40
2023-05-09T04:45:25.187Z,1.40
2023-05-09T04:47:52.063Z,1.50
2023-05-09T04:50:18.856Z,1.70
2023-05-09T04:52:45.613Z,1.80
2023-05-09T04:55:12.917Z,2.20
2023-05-09T04:57:44.207Z,2.00
2023-05-09T05:00:11.947Z,2.10
2023-05-09T05:02:39.472Z,2.60
2023-05-09T05:05:12.096Z,1.95
2023-05-09T05:07:42.367Z,2.88
2023-05-09T05:10:11.201Z,2.70
2023-05-09T05:12:40.186Z,2.70
2023-05-09T05:15:09.616Z,3.00
2023-05-09T05:17:36.531Z,3.30
2023-05-09T05:20:06.657Z,3.38
2023-05-09T05:22:33.797Z,3.50
2023-05-09T05:25:00.962Z,3.42
2023-05-09T05:27:27.715Z,3.97
2023-05-09T05:29:54.459Z,3.80
2023-05-09T05:32:21.231Z,4.13
2023-05-09T05:34:48.005Z,3.75
2023-05-09T05:37:14.806Z,4.20
2023-05-09T05:39:42.398Z,4.10
2023-05-09T05:42:09.360Z,3.97
2023-05-09T05:44:36.697Z,3.92
2023-05-09T05:47:03.936Z,4.05
2023-05-09T05:49:31.012Z,4.70
2023-05-09T05:51:58.138Z,4.32
2023-05-09T05:54:26.092Z,4.63
2023-05-09T05:56:54.522Z,3.83
2023-05-09T05:59:21.308Z,4.75
2023-05-09T06:01:48.706Z,4.72
2023-05-09T06:04:16.289Z,4.32
2023-05-09T06:06:43.946Z,4.10
2023-05-09T06:09:10.632Z,3.92
2023-05-09T06:11:37.745Z,3.78
2023-05-09T06:14:04.472Z,3.88
2023-05-09T06:16:31.403Z,4.00
2023-05-09T06:18:58.095Z,4.15
2023-05-09T06:21:24.904Z,4.00
2023-05-09T06:24:07.829Z,3.90
2023-05-09T06:26:38.447Z,3.97
2023-05-09T06:29:06.534Z,4.20
2023-05-09T06:31:35.905Z,4.40
2023-05-09T06:34:02.606Z,4.30
2023-05-09T06:36:29.337Z,4.22
2023-05-09T06:38:56.194Z,4.55
2023-05-09T06:41:23.217Z,4.20
2023-05-09T06:43:50.120Z,3.90
2023-05-09T06:46:16.831Z,4.40
2023-05-09T06:48:43.546Z,4.40
2023-05-09T06:51:11.541Z,4.22
2023-05-09T06:53:38.222Z,4.15
2023-05-09T06:56:04.986Z,4.47
2023-05-09T06:58:31.666Z,4.07
2023-05-09T07:00:58.382Z,4.20
2023-05-09T07:03:25.077Z,4.35
2023-05-09T07:05:52.532Z,4.75
2023-05-09T07:08:19.190Z,4.50
2023-05-09T07:10:45.886Z,4.65
2023-05-09T07:13:13.463Z,4.30
2023-05-09T07:15:42.683Z,3.92
2023-05-09T07:18:10.010Z,3.90
2023-05-09T07:20:36.862Z,3.72
2023-05-09T07:23:04.109Z,4.15
2023-05-09T07:25:30.898Z,4.13
2023-05-09T07:27:57.585Z,4.20
2023-05-09T07:30:24.347Z,3.95
2023-05-09T07:32:51.948Z,3.63
2023-05-09T07:35:18.701Z,4.00
2023-05-09T07:37:45.459Z,3.80
2023-05-09T07:40:12.235Z,3.75
2023-05-09T07:42:39.591Z,3.95
2023-05-09T07:45:06.351Z,3.25
2023-05-09T07:47:33.103Z,3.45
2023-05-09T07:49:59.823Z,3.50
2023-05-09T07:52:26.558Z,3.55
2023-05-09T07:54:54.588Z,3.60
2023-05-09T07:57:21.466Z,3.38
2023-05-09T07:59:48.176Z,3.40
2023-05-09T08:02:14.914Z,3.80
2023-05-09T08:04:41.904Z,3.80
2023-05-09T08:07:09.215Z,4.05
2023-05-09T08:09:36.320Z,4.25
2023-05-09T08:12:03.174Z,7.75
2023-05-09T08:14:30.367Z,4.18
2023-05-09T08:16:57.329Z,3.40
2023-05-09T08:19:26.209Z,3.30
2023-05-09T08:21:53.184Z,3.20
2023-05-09T08:24:20.380Z,3.20
2023-05-09T08:26:47.240Z,3.17
2023-05-09T08:29:14.010Z,2.65
2023-05-09T08:31:41.194Z,3.03
2023-05-09T08:34:07.966Z,2.60
2023-05-09T08:36:34.699Z,2.63
2023-05-09T08:39:01.349Z,2.67
2023-05-09T08:41:28.260Z,2.35
2023-05-09T08:43:54.964Z,2.60
2023-05-09T08:46:21.749Z,2.30
2023-05-09T08:48:49.120Z,2.40
2023-05-09T08:51:17.894Z,2.30
2023-05-09T08:53:44.612Z,2.33
2023-05-09T08:56:11.365Z,2.40
2023-05-09T08:58:38.049Z,2.53
2023-05-09T09:01:06.954Z,2.40
2023-05-09T09:03:33.600Z,2.30
2023-05-09T09:06:00.540Z,2.17
2023-05-09T09:08:27.461Z,1.63
2023-05-09T09:10:54.167Z,1.75
2023-05-09T09:13:20.953Z,1.80
2023-05-09T09:15:47.782Z,1.65
2023-05-09T09:18:14.500Z,1.52
2023-05-09T09:20:41.692Z,1.65
2023-05-09T09:23:08.388Z,1.50
2023-05-09T09:25:35.121Z,1.60
2023-05-09T09:28:01.879Z,1.70
2023-05-09T09:30:29.344Z,1.40
2023-05-09T09:32:56.073Z,1.10
2023-05-09T09:35:24.846Z,1.30
2023-05-09T09:37:51.591Z,2.10
2023-05-09T09:40:18.395Z,2.13
2023-05-09T09:42:45.148Z,1.85
2023-05-09T09:45:12.514Z,2.15
2023-05-09T09:47:39.350Z,1.85
2023-05-09T09:50:06.373Z,2.22
2023-05-09T09:52:33.083Z,1.85
2023-05-09T09:54:59.841Z,1.90
2023-05-09T09:57:26.790Z,2.30
2023-05-09T09:59:53.504Z,2.30
2023-05-09T10:02:20.150Z,2.25
2023-05-09T10:04:46.894Z,1.65
2023-05-09T10:07:15.141Z,1.70
2023-05-09T10:09:43.839Z,2.60
2023-05-09T10:12:11.154Z,1.50
2023-05-09T10:14:37.944Z,1.60
2023-05-09T10:17:05.062Z,1.40
2023-05-09T10:19:32.206Z,1.65
2023-05-09T10:21:58.952Z,1.52
2023-05-09T10:24:26.278Z,1.85
2023-05-09T10:26:52.997Z,1.80
2023-05-09T10:29:22.958Z,1.80
2023-05-09T10:31:49.695Z,1.70
2023-05-09T10:34:16.431Z,1.40
2023-05-09T10:36:43.138Z,1.45
2023-05-09T10:39:09.862Z,1.60
2023-05-09T10:41:37.513Z,1.88
2023-05-09T10:44:04.211Z,1.48
2023-05-09T10:46:31.397Z,2.10
2023-05-09T10:48:58.099Z,1.80
2023-05-09T10:51:24.826Z,1.20
2023-05-09T10:53:51.617Z,9.13
2023-05-09T10:56:18.458Z,1.48
2023-05-09T10:58:45.176Z,3.13
2023-05-09T11:01:11.988Z,1.50
2023-05-09T11:03:38.720Z,1.23
2023-05-09T11:06:05.729Z,1.67
2023-05-09T11:08:33.323Z,1.50
2023-05-09T11:11:00.724Z,1.48
2023-05-09T11:13:27.615Z,1.95
2023-05-09T11:15:54.484Z,1.52
2023-05-09T11:18:21.270Z,1.70
2023-05-09T11:20:48.117Z,1.73
2023-05-09T11:23:17.307Z,1.65
2023-05-09T11:25:44.134Z,1.90
2023-05-09T11:28:12.229Z,1.60
2023-05-09T11:30:39.542Z,2.35
2023-05-09T11:33:06.947Z,1.75
2023-05-09T11:35:34.332Z,1.73
2023-05-09T11:38:01.143Z,1.92
2023-05-09T11:40:27.914Z,1.58
2023-05-09T11:42:58.015Z,1.42
2023-05-09T11:45:25.672Z,1.70
2023-05-09T11:47:52.503Z,1.73
2023-05-09T11:50:19.847Z,1.50
2023-05-09T11:52:47.268Z,1.70
2023-05-09T11:55:14.237Z,1.38
2023-05-09T11:57:41.320Z,1.92
2023-05-09T12:00:09.345Z,1.77
2023-05-09T12:02:36.167Z,1.67
2023-05-09T12:05:02.963Z,2.67
2023-05-09T12:07:29.762Z,5.82
2023-05-09T12:09:56.449Z,2.30
2023-05-09T12:12:23.186Z,1.90
2023-05-09T12:14:49.966Z,1.83
2023-05-09T12:17:16.694Z,2.28
2023-05-09T12:19:43.483Z,2.10
2023-05-09T12:22:10.181Z,1.73
2023-05-09T12:24:37.829Z,2.42
2023-05-09T12:27:05.032Z,1.90
2023-05-09T12:29:31.758Z,1.90
2023-05-09T12:31:58.455Z,3.45
2023-05-09T12:34:25.183Z,2.08
2023-05-09T12:36:52.058Z,6.30
2023-05-09T12:39:21.855Z,2.40
2023-05-09T12:42:00.433Z,4.13
2023-05-09T12:44:29.811Z,2.15
2023-05-09T12:46:56.953Z,2.30
2023-05-09T12:49:23.720Z,2.15
2023-05-09T12:51:50.584Z,2.30
2023-05-09T12:54:17.427Z,2.50
2023-05-09T12:56:44.742Z,2.38
2023-05-09T12:59:14.836Z,2.25
2023-05-09T13:01:41.598Z,2.67
2023-05-09T13:04:08.816Z,2.47
2023-05-09T13:06:37.993Z,2.92
2023-05-09T13:09:06.310Z,3.45
2023-05-09T13:11:33.245Z,2.30
2023-05-09T13:14:00.064Z,2.28
2023-05-09T13:16:27.124Z,2.83
2023-05-09T13:18:53.933Z,11.10
2023-05-09T13:21:21.130Z,3.10
2023-05-09T13:23:50.095Z,2.42
2023-05-09T13:26:16.927Z,2.65
2023-05-09T13:28:43.627Z,2.70
2023-05-09T13:31:10.494Z,3.53
2023-05-09T13:33:37.268Z,2.72
2023-05-09T13:36:04.089Z,2.70
2023-05-09T13:38:32.180Z,2.42
2023-05-09T13:40:59.760Z,3.08
2023-05-09T13:43:27.461Z,2.80
2023-05-09T13:45:54.246Z,2.45
2023-05-09T13:48:20.917Z,2.60
2023-05-09T13:50:47.734Z,2.47
2023-05-09T13:53:14.402Z,2.67
2023-05-09T13:55:41.144Z,3.05
2023-05-09T13:58:07.900Z,4.47
2023-05-09T14:00:34.620Z,2.85
2023-05-09T14:03:01.510Z,2.47
2023-05-09T14:05:28.274Z,2.45
2023-05-09T14:07:54.930Z,2.38
2023-05-09T14:10:22.292Z,2.67
2023-05-09T14:12:49.033Z,2.42
2023-05-09T14:15:16.369Z,2.13
2023-05-09T14:17:43.592Z,2.33
2023-05-09T14:20:10.691Z,2.20
2023-05-09T14:22:37.407Z,2.20
2023-05-09T14:25:04.132Z,2.08
2023-05-09T14:27:30.849Z,2.35
2023-05-09T14:29:57.819Z,2.20
2023-05-09T14:32:25.340Z,2.67
2023-05-09T14:34:52.300Z,2.45
2023-05-09T14:37:19.059Z,2.47
2023-05-09T14:39:46.844Z,2.17
2023-05-09T14:42:14.373Z,2.13
2023-05-09T14:44:41.394Z,3.13
2023-05-09T14:47:08.463Z,6.15
2023-05-09T14:49:35.567Z,2.65
2023-05-09T14:52:02.234Z,2.60
2023-05-09T14:54:28.966Z,2.58
2023-05-09T14:56:55.746Z,2.35
2023-05-09T14:59:24.835Z,2.17
2023-05-09T15:01:52.660Z,2.28
2023-05-09T15:04:19.544Z,2.28
2023-05-09T15:06:46.348Z,2.50
2023-05-09T15:09:13.111Z,2.22
2023-05-09T15:11:47.563Z,2.35
2023-05-09T15:14:15.290Z,2.03
2023-05-09T15:16:42.143Z,2.63
2023-05-09T15:19:09.010Z,2.90
2023-05-09T15:21:35.984Z,2.30
2023-05-09T15:24:03.635Z,2.30
2023-05-09T15:26:30.579Z,2.70
2023-05-09T15:28:57.335Z,2.90
2023-05-09T15:31:25.592Z,2.35
2023-05-09T15:33:52.454Z,2.30
2023-05-09T15:36:19.136Z,2.28
2023-05-09T15:38:49.447Z,2.40
2023-05-09T15:41:16.757Z,2.40
2023-05-09T15:43:43.617Z,2.28
2023-05-09T15:46:10.595Z,2.30
2023-05-09T15:48:37.390Z,2.53
2023-05-09T15:51:04.386Z,2.58
2023-05-09T15:53:31.248Z,2.22
2023-05-09T15:55:58.139Z,2.42
2023-05-09T15:58:24.889Z,2.85
2023-05-09T16:00:51.600Z,1.90
2023-05-09T16:03:18.364Z,2.08
2023-05-09T16:05:45.454Z,1.65
2023-05-09T16:08:12.545Z,1.40
2023-05-09T16:10:39.340Z,1.45
2023-05-09T16:13:06.107Z,1.73
2023-05-09T16:15:32.971Z,1.98
2023-05-09T16:17:59.739Z,1.60
2023-05-09T16:20:26.549Z,2.55
2023-05-09T16:22:53.247Z,1.42
2023-05-09T16:25:20.021Z,1.80
2023-05-09T16:27:46.714Z,1.63
2023-05-09T16:30:13.690Z,1.30
2023-05-09T16:32:40.636Z,1.30
2023-05-09T16:35:07.787Z,1.10
2023-05-09T16:37:35.638Z,1.45
2023-05-09T16:40:02.980Z,1.38
2023-05-09T16:42:29.706Z,1.50
2023-05-09T16:44:56.445Z,1.67
2023-05-09T16:47:23.210Z,1.45
2023-05-09T16:49:49.989Z,1.38
2023-05-09T16:52:16.907Z,1.75
2023-05-09T16:54:43.596Z,2.30
2023-05-09T16:57:10.337Z,2.20
2023-05-09T16:59:37.336Z,2.50
2023-05-09T17:02:04.602Z,2.70
2023-05-09T17:04:31.477Z,2.65
2023-05-09T17:06:58.291Z,2.67
2023-05-09T17:09:25.203Z,2.42
2023-05-09T17:11:51.939Z,2.30
2023-05-09T17:14:18.757Z,2.45
2023-05-09T17:16:45.619Z,3.00
2023-05-09T17:19:12.425Z,3.05
2023-05-09T17:21:41.608Z,2.50
2023-05-09T17:24:08.445Z,1.77
2023-05-09T17:26:35.165Z,2.00
2023-05-09T17:29:03.795Z,1.65
2023-05-09T17:31:31.283Z,1.58
2023-05-09T17:33:58.075Z,1.80
2023-05-09T17:36:25.741Z,1.77
2023-05-09T17:38:52.689Z,1.70
2023-05-09T17:41:19.495Z,1.75
2023-05-09T17:43:46.202Z,1.83
2023-05-09T17:46:14.862Z,1.65
2023-05-09T17:48:42.097Z,1.70
2023-05-09T17:51:09.129Z,1.70
2023-05-09T17:53:35.852Z,1.73
2023-05-09T17:56:02.593Z,2.13
2023-05-09T17:58:29.892Z,2.10
2023-05-09T18:00:58.697Z,1.77
2023-05-09T18:03:25.714Z,2.05
2023-05-09T18:05:52.444Z,2.00
2023-05-09T18:08:19.224Z,1.55
2023-05-09T18:10:46.182Z,1.38
2023-05-09T18:13:13.892Z,1.40
2023-05-09T18:15:41.259Z,1.20
2023-05-09T18:18:08.166Z,1.20
2023-05-09T18:20:35.018Z,1.10
2023-05-09T18:23:01.793Z,1.42
2023-05-09T18:25:28.565Z,0.93
2023-05-09T18:27:55.718Z,1.35
2023-05-09T18:30:22.416Z,1.20
2023-05-09T18:32:49.139Z,1.83
2023-05-09T18:35:16.055Z,2.33
2023-05-09T18:37:42.773Z,1.50
2023-05-09T18:40:14.684Z,1.63
2023-05-09T18:42:41.764Z,1.60
2023-05-09T18:45:08.629Z,1.40
2023-05-09T18:47:35.470Z,1.73
2023-05-09T18:50:03.056Z,1.95
2023-05-09T18:52:31.847Z,2.05
2023-05-09T18:54:58.554Z,2.00
2023-05-09T18:57:26.170Z,1.40
2023-05-09T18:59:53.016Z,1.50
2023-05-09T19:02:20.717Z,2.70
2023-05-09T19:04:48.200Z,2.38
2023-05-09T19:07:15.176Z,2.33
2023-05-09T19:09:41.974Z,3.30
2023-05-09T19:12:09.784Z,7.10
2023-05-09T19:14:37.857Z,5.95
2023-05-09T19:17:07.854Z,2.83
2023-05-09T19:19:34.667Z,2.90
2023-05-09T19:22:01.826Z,1.90
2023-05-09T19:24:28.612Z,2.25
2023-05-09T19:26:55.452Z,1.75
2023-05-09T19:29:22.237Z,1.92
2023-05-09T19:31:48.942Z,1.95
2023-05-09T19:34:15.830Z,2.35
2023-05-09T19:36:42.585Z,1.98
2023-05-09T19:39:09.480Z,2.50
2023-05-09T19:41:36.211Z,1.80
2023-05-09T19:44:02.966Z,1.73
2023-05-09T19:46:29.676Z,2.00
2023-05-09T19:48:56.459Z,2.03
2023-05-09T19:51:23.134Z,1.80
2023-05-09T19:53:49.847Z,1.98
2023-05-09T19:56:16.587Z,2.58
2023-05-09T19:58:43.465Z,6.07
2023-05-09T20:01:10.265Z,5.07
2023-05-09T20:03:38.612Z,3.00
2023-05-09T20:06:05.827Z,3.10
2023-05-09T20:08:32.572Z,2.70
2023-05-09T20:11:00.178Z,2.70
2023-05-09T20:13:27.500Z,2.72
2023-05-09T20:15:54.366Z,3.28
2023-05-09T20:18:21.194Z,2.70
2023-05-09T20:20:48.332Z,2.85
2023-05-09T20:23:15.065Z,2.63
2023-05-09T20:25:41.715Z,2.90
2023-05-09T20:28:08.374Z,2.80
2023-05-09T20:30:35.057Z,2.25
2023-05-09T20:33:01.780Z,2.47
2023-05-09T20:35:28.508Z,2.58
2023-05-09T20:37:55.359Z,2.80
2023-05-09T20:40:21.982Z,3.03
2023-05-09T20:42:48.672Z,3.10
2023-05-09T20:45:15.398Z,3.30
2023-05-09T20:47:42.143Z,3.17
2023-05-09T20:50:08.897Z,2.53
2023-05-09T20:52:35.681Z,2.97
2023-05-09T20:55:02.376Z,2.90
2023-05-09T20:57:29.064Z,2.90
2023-05-09T20:59:55.743Z,2.30
2023-05-09T21:02:22.504Z,3.17
2023-05-09T21:04:49.287Z,3.30
2023-05-09T21:07:19.126Z,4.63
2023-05-09T21:09:46.049Z,5.20
2023-05-09T21:12:12.722Z,4.63
2023-05-09T21:14:39.446Z,5.40
2023-05-09T21:17:06.163Z,8.02
2023-05-09T21:19:34.172Z,5.00
2023-05-09T21:22:00.858Z,4.90
2023-05-09T21:24:27.612Z,4.57
2023-05-09T21:26:54.303Z,4.13
2023-05-09T21:29:20.983Z,3.58
2023-05-09T21:31:47.679Z,3.13
2023-05-09T21:34:14.352Z,3.17
2023-05-09T21:36:41.044Z,4.00
2023-05-09T21:39:10.847Z,3.95
2023-05-09T21:41:37.470Z,3.30
2023-05-09T21:44:04.180Z,3.45
2023-05-09T21:46:31.001Z,3.38
2023-05-09T21:48:57.812Z,3.53
2023-05-09T21:51:24.480Z,3.25
2023-05-09T21:53:51.128Z,2.80
2023-05-09T21:56:18.934Z,3.40
2023-05-09T21:58:45.677Z,3.42
2023-05-09T22:01:12.316Z,3.30
2023-05-09T22:03:39.155Z,3.78
2023-05-09T22:06:05.857Z,3.50
2023-05-09T22:08:32.576Z,3.10
2023-05-09T22:10:59.653Z,3.25
2023-05-09T22:13:28.748Z,2.80
2023-05-09T22:15:55.584Z,2.67
2023-05-09T22:18:22.277Z,2.42
2023-05-09T22:20:48.900Z,2.50
2023-05-09T22:23:15.623Z,2.45
2023-05-09T22:25:42.259Z,2.80
2023-05-09T22:28:09.224Z,2.75
2023-05-09T22:30:36.167Z,2.40
2023-05-09T22:33:03.021Z,2.97
2023-05-09T22:35:29.759Z,3.00
2023-05-09T22:37:56.666Z,2.97
2023-05-09T22:40:23.392Z,3.13
2023-05-09T22:42:50.215Z,3.33
2023-05-09T22:45:16.994Z,3.22
2023-05-09T22:47:44.617Z,4.57
2023-05-09T22:50:11.557Z,3.53
2023-05-09T22:52:38.564Z,3.70
2023-05-09T22:55:05.285Z,3.72
2023-05-09T22:57:32.039Z,3.50
2023-05-09T22:59:58.703Z,4.00
2023-05-09T23:02:25.495Z,3.97
2023-05-09T23:04:52.224Z,3.90
2023-05-09T23:07:18.914Z,4.07
2023-05-09T23:09:45.677Z,4.40
2023-05-09T23:12:12.438Z,4.68
2023-05-09T23:14:39.385Z,5.45
2023-05-09T23:17:06.270Z,5.15
2023-05-09T23:19:33.249Z,5.10
2023-05-09T23:22:00.149Z,5.60
2023-05-09T23:24:26.942Z,5.20
2023-05-09T23:26:53.661Z,5.07
2023-05-09T23:29:20.429Z,5.45
2023-05-09T23:31:47.294Z,5.57
2023-05-09T23:34:14.029Z,5.07
2023-05-09T23:36:40.800Z,4.45
2023-05-09T23:39:07.485Z,4.40
2023-05-09T23:41:34.338Z,3.67
2023-05-09T23:44:03.283Z,3.50
2023-05-09T23:46:30.112Z,3.47
2023-05-09T23:48:56.859Z,3.63
2023-05-09T23:51:23.616Z,3.15
2023-05-09T23:53:50.587Z,3.20
2023-05-09T23:56:17.325Z,3.80
2023-05-09T23:58:44.077Z,3.50
